sensor_id;sensor_type;location;lat;lon;timestamp;pressure;altitude;pressure_sealevel;temperature;humidity
79612;BME280;69094;48.154;11.536;2023-05-10T00:00:11;94925.00;;;12.97;84.33
79612;BME280;69094;48.154;11.536;2023-05-10T00:02:37;94919.03;;;12.91;86.33
79612;BME280;69094;48.154;11.536;2023-05-10T00:05:02;94922.41;;;12.84;85.19
79612;BME280;69094;48.154;11.536;2023-05-10T00:07:28;94928.84;;;12.76;85.91
79612;BME280;69094;48.154;11.536;2023-05-10T00:09:53;94930.44;;;12.77;85.43
79612;BME280;69094;48.154;11.536;2023-05-10T00:12:19;94926.56;;;12.78;86.62
79612;BME280;69094;48.154;11.536;2023-05-10T00:14:44;94921.09;;;12.78;86.80
79612;BME280;69094;48.154;11.536;2023-05-10T00:17:10;94927.28;;;12.75;86.30
79612;BME280;69094;48.154;11.536;2023-05-10T00:19:35;94920.94;;;12.71;86.04
79612;BME280;69094;48.154;11.536;2023-05-10T00:22:01;94913.91;;;12.70;85.61
79612;BME280;69094;48.154;11.536;2023-05-10T00:24:26;94915.84;;;12.69;85.59
79612;BME280;69094;48.154;11.536;2023-05-10T00:26:52;94914.41;;;12.76;85.89
79612;BME280;69094;48.154;11.536;2023-05-10T00:29:17;94916.34;;;12.75;85.55
79612;BME280;69094;48.154;11.536;2023-05-10T00:31:42;94909.28;;;12.74;84.69
79612;BME280;69094;48.154;11.536;2023-05-10T00:34:08;94919.44;;;12.74;85.18
79612;BME280;69094;48.154;11.536;2023-05-10T00:36:33;94915.13;;;12.73;85.06
79612;BME280;69094;48.154;11.536;2023-05-10T00:38:58;94915.47;;;12.71;85.05
79612;BME280;69094;48.154;11.536;2023-05-10T00:41:24;94912.41;;;12.73;84.55
79612;BME280;69094;48.154;11.536;2023-05-10T00:43:49;94907.56;;;12.66;85.71
79612;BME280;69094;48.154;11.536;2023-05-10T00:46:15;94903.31;;;12.68;85.56
79612;BME280;69094;48.154;11.536;2023-05-10T00:48:41;94907.66;;;12.69;84.64
79612;BME280;69094;48.154;11.536;2023-05-10T00:51:07;94902.53;;;12.68;84.55
79612;BME280;69094;48.154;11.536;2023-05-10T00:53:34;94902.81;;;12.63;84.56
79612;BME280;69094;48.154;11.536;2023-05-10T00:56:00;94904.75;;;12.62;85.16
79612;BME280;69094;48.154;11.536;2023-05-10T00:58:27;94903.66;;;12.67;85.24
79612;BME280;69094;48.154;11.536;2023-05-10T01:00:55;94898.19;;;12.67;85.57
79612;BME280;69094;48.154;11.536;2023-05-10T01:03:22;94903.94;;;12.62;84.95
79612;BME280;69094;48.154;11.536;2023-05-10T01:05:47;94903.16;;;12.61;85.40
79612;BME280;69094;48.154;11.536;2023-05-10T01:08:13;94898.34;;;12.55;86.14
79612;BME280;69094;48.154;11.536;2023-05-10T01:10:38;94902.56;;;12.52;84.96
79612;BME280;69094;48.154;11.536;2023-05-10T01:13:04;94895.94;;;12.53;85.12
79612;BME280;69094;48.154;11.536;2023-05-10T01:15:29;94897.72;;;12.45;85.27
79612;BME280;69094;48.154;11.536;2023-05-10T01:17:56;94894.97;;;12.45;85.76
79612;BME280;69094;48.154;11.536;2023-05-10T01:20:21;94900.44;;;12.45;85.58
79612;BME280;69094;48.154;11.536;2023-05-10T01:25:45;94894.88;;;12.42;85.50
79612;BME280;69094;48.154;11.536;2023-05-10T01:28:32;94902.22;;;12.38;84.97
79612;BME280;69094;48.154;11.536;2023-05-10T01:42:09;94899.81;;;12.36;85.70
79612;BME280;69094;48.154;11.536;2023-05-10T01:47:37;94896.13;;;12.28;85.63
79612;BME280;69094;48.154;11.536;2023-05-10T01:50:04;94899.38;;;12.34;85.33
79612;BME280;69094;48.154;11.536;2023-05-10T01:52:38;94896.91;;;12.29;85.32
79612;BME280;69094;48.154;11.536;2023-05-10T01:55:08;94895.78;;;12.30;86.37
79612;BME280;69094;48.154;11.536;2023-05-10T01:57:35;94899.75;;;12.33;85.90
79612;BME280;69094;48.154;11.536;2023-05-10T02:00:03;94897.28;;;12.27;85.65
79612;BME280;69094;48.154;11.536;2023-05-10T02:02:33;94901.06;;;12.23;86.54
79612;BME280;69094;48.154;11.536;2023-05-10T02:05:00;94899.13;;;12.23;86.04
79612;BME280;69094;48.154;11.536;2023-05-10T02:07:28;94901.41;;;12.21;86.41
79612;BME280;69094;48.154;11.536;2023-05-10T02:09:54;94896.38;;;12.23;86.29
79612;BME280;69094;48.154;11.536;2023-05-10T02:12:20;94900.28;;;12.22;86.24
79612;BME280;69094;48.154;11.536;2023-05-10T02:14:47;94898.59;;;12.18;86.53
79612;BME280;69094;48.154;11.536;2023-05-10T02:17:13;94895.50;;;12.19;86.53
79612;BME280;69094;48.154;11.536;2023-05-10T02:19:41;94897.34;;;12.15;87.32
79612;BME280;69094;48.154;11.536;2023-05-10T02:22:08;94898.75;;;12.09;85.91
79612;BME280;69094;48.154;11.536;2023-05-10T02:24:34;94901.84;;;12.07;86.08
79612;BME280;69094;48.154;11.536;2023-05-10T02:27:02;94898.75;;;12.09;86.03
79612;BME280;69094;48.154;11.536;2023-05-10T02:29:28;94904.19;;;12.09;86.26
79612;BME280;69094;48.154;11.536;2023-05-10T02:31:55;94900.78;;;12.12;86.41
79612;BME280;69094;48.154;11.536;2023-05-10T02:34:23;94899.66;;;12.13;85.95
79612;BME280;69094;48.154;11.536;2023-05-10T02:36:49;94895.69;;;12.11;85.65
79612;BME280;69094;48.154;11.536;2023-05-10T02:39:16;94899.66;;;12.13;85.47
79612;BME280;69094;48.154;11.536;2023-05-10T02:41:44;94894.25;;;12.17;85.29
79612;BME280;69094;48.154;11.536;2023-05-10T02:44:12;94894.72;;;12.19;85.35
79612;BME280;69094;48.154;11.536;2023-05-10T02:46:39;94891.91;;;12.15;86.21
79612;BME280;69094;48.154;11.536;2023-05-10T02:49:05;94903.59;;;12.16;85.78
79612;BME280;69094;48.154;11.536;2023-05-10T02:51:32;94904.72;;;12.15;85.52
79612;BME280;69094;48.154;11.536;2023-05-10T02:54:25;94904.06;;;12.18;86.06
79612;BME280;69094;48.154;11.536;2023-05-10T02:56:57;94908.28;;;12.15;85.79
79612;BME280;69094;48.154;11.536;2023-05-10T02:59:24;94902.44;;;12.17;85.50
79612;BME280;69094;48.154;11.536;2023-05-10T03:01:49;94907.03;;;12.13;85.33
79612;BME280;69094;48.154;11.536;2023-05-10T03:04:15;94906.34;;;12.16;86.03
79612;BME280;69094;48.154;11.536;2023-05-10T03:06:40;94891.28;;;12.06;86.02
79612;BME280;69094;48.154;11.536;2023-05-10T03:09:06;94902.25;;;12.10;85.85
79612;BME280;69094;48.154;11.536;2023-05-10T03:11:47;94907.72;;;12.10;86.21
79612;BME280;69094;48.154;11.536;2023-05-10T03:17:23;94913.72;;;12.15;85.88
79612;BME280;69094;48.154;11.536;2023-05-10T03:19:55;94920.22;;;12.11;85.83
79612;BME280;69094;48.154;11.536;2023-05-10T03:22:25;94913.28;;;12.13;86.08
79612;BME280;69094;48.154;11.536;2023-05-10T03:24:54;94912.13;;;12.14;85.90
79612;BME280;69094;48.154;11.536;2023-05-10T03:27:22;94919.53;;;12.14;85.72
79612;BME280;69094;48.154;11.536;2023-05-10T03:29:48;94922.16;;;12.10;86.58
79612;BME280;69094;48.154;11.536;2023-05-10T03:32:16;94915.22;;;12.13;86.06
79612;BME280;69094;48.154;11.536;2023-05-10T03:34:42;94928.84;;;12.13;85.98
79612;BME280;69094;48.154;11.536;2023-05-10T03:37:08;94925.69;;;12.11;86.41
79612;BME280;69094;48.154;11.536;2023-05-10T03:39:34;94917.84;;;12.09;86.13
79612;BME280;69094;48.154;11.536;2023-05-10T03:41:59;94922.94;;;12.11;86.21
79612;BME280;69094;48.154;11.536;2023-05-10T03:44:25;94925.22;;;12.09;87.04
79612;BME280;69094;48.154;11.536;2023-05-10T03:46:50;94917.75;;;12.05;86.22
79612;BME280;69094;48.154;11.536;2023-05-10T03:49:15;94923.47;;;12.00;87.19
79612;BME280;69094;48.154;11.536;2023-05-10T03:51:41;94931.47;;;12.09;86.86
79612;BME280;69094;48.154;11.536;2023-05-10T03:54:06;94934.47;;;12.04;86.65
79612;BME280;69094;48.154;11.536;2023-05-10T03:56:32;94933.56;;;12.00;87.41
79612;BME280;69094;48.154;11.536;2023-05-10T03:58:57;94937.09;;;12.00;87.26
79612;BME280;69094;48.154;11.536;2023-05-10T04:01:23;94939.84;;;12.00;86.74
79612;BME280;69094;48.154;11.536;2023-05-10T04:03:48;94946.59;;;12.06;87.06
79612;BME280;69094;48.154;11.536;2023-05-10T04:06:13;94941.59;;;12.09;86.35
79612;BME280;69094;48.154;11.536;2023-05-10T04:08:39;94943.16;;;12.10;86.32
79612;BME280;69094;48.154;11.536;2023-05-10T04:11:09;94939.22;;;12.07;85.92
79612;BME280;69094;48.154;11.536;2023-05-10T04:13:35;94944.00;;;12.10;86.06
79612;BME280;69094;48.154;11.536;2023-05-10T04:16:01;94944.25;;;12.05;86.58
79612;BME280;69094;48.154;11.536;2023-05-10T04:18:26;94942.31;;;12.05;87.44
79612;BME280;69094;48.154;11.536;2023-05-10T04:20:52;94949.34;;;12.06;87.39
79612;BME280;69094;48.154;11.536;2023-05-10T04:23:17;94947.56;;;11.98;87.15
79612;BME280;69094;48.154;11.536;2023-05-10T04:25:42;94940.09;;;11.95;87.52
79612;BME280;69094;48.154;11.536;2023-05-10T04:28:08;94945.38;;;12.04;87.11
79612;BME280;69094;48.154;11.536;2023-05-10T04:30:34;94955.22;;;12.09;86.73
79612;BME280;69094;48.154;11.536;2023-05-10T04:33:00;94950.03;;;12.03;87.03
79612;BME280;69094;48.154;11.536;2023-05-10T04:35:27;94951.28;;;12.06;87.08
79612;BME280;69094;48.154;11.536;2023-05-10T04:37:52;94953.91;;;12.02;87.13
79612;BME280;69094;48.154;11.536;2023-05-10T04:40:17;94942.81;;;11.95;88.02
79612;BME280;69094;48.154;11.536;2023-05-10T04:42:43;94948.53;;;11.90;87.73
79612;BME280;69094;48.154;11.536;2023-05-10T04:45:09;94950.28;;;11.98;87.06
79612;BME280;69094;48.154;11.536;2023-05-10T04:47:35;94948.94;;;11.92;87.39
79612;BME280;69094;48.154;11.536;2023-05-10T04:50:02;94957.22;;;11.96;88.10
79612;BME280;69094;48.154;11.536;2023-05-10T04:52:27;94958.72;;;11.93;88.05
79612;BME280;69094;48.154;11.536;2023-05-10T04:54:53;94962.94;;;11.91;87.06
79612;BME280;69094;48.154;11.536;2023-05-10T04:57:18;94968.28;;;11.87;86.66
79612;BME280;69094;48.154;11.536;2023-05-10T04:59:43;94967.94;;;11.89;86.93
79612;BME280;69094;48.154;11.536;2023-05-10T05:02:09;94971.91;;;11.91;86.62
79612;BME280;69094;48.154;11.536;2023-05-10T05:04:34;94960.56;;;11.89;86.38
79612;BME280;69094;48.154;11.536;2023-05-10T05:06:59;94973.84;;;11.91;86.15
79612;BME280;69094;48.154;11.536;2023-05-10T05:09:25;94976.78;;;11.85;86.27
79612;BME280;69094;48.154;11.536;2023-05-10T05:11:50;94986.47;;;11.83;85.85
79612;BME280;69094;48.154;11.536;2023-05-10T05:14:16;94982.81;;;11.79;85.85
79612;BME280;69094;48.154;11.536;2023-05-10T05:16:41;95002.81;;;11.83;86.50
79612;BME280;69094;48.154;11.536;2023-05-10T05:19:07;94997.38;;;11.83;87.72
79612;BME280;69094;48.154;11.536;2023-05-10T05:21:32;94999.16;;;11.91;86.96
79612;BME280;69094;48.154;11.536;2023-05-10T05:23:57;95003.47;;;11.92;88.68
79612;BME280;69094;48.154;11.536;2023-05-10T05:26:23;95004.16;;;11.89;88.60
79612;BME280;69094;48.154;11.536;2023-05-10T05:28:48;95001.13;;;11.91;88.21
79612;BME280;69094;48.154;11.536;2023-05-10T05:31:16;95008.69;;;11.97;86.15
79612;BME280;69094;48.154;11.536;2023-05-10T05:33:42;95010.78;;;11.88;87.76
79612;BME280;69094;48.154;11.536;2023-05-10T05:36:08;95008.72;;;11.85;87.29
79612;BME280;69094;48.154;11.536;2023-05-10T05:38:33;95018.97;;;11.88;86.93
79612;BME280;69094;48.154;11.536;2023-05-10T05:40:59;95016.44;;;11.83;85.88
79612;BME280;69094;48.154;11.536;2023-05-10T05:43:24;95029.63;;;11.81;86.20
79612;BME280;69094;48.154;11.536;2023-05-10T05:45:52;95025.00;;;11.69;86.53
79612;BME280;69094;48.154;11.536;2023-05-10T05:48:17;95026.78;;;11.77;85.30
79612;BME280;69094;48.154;11.536;2023-05-10T05:50:42;95024.75;;;11.74;85.78
79612;BME280;69094;48.154;11.536;2023-05-10T05:53:08;95027.94;;;11.76;85.94
79612;BME280;69094;48.154;11.536;2023-05-10T05:55:34;95027.34;;;11.83;85.02
79612;BME280;69094;48.154;11.536;2023-05-10T05:57:59;95023.25;;;11.89;84.64
79612;BME280;69094;48.154;11.536;2023-05-10T06:00:24;95027.97;;;12.04;83.91
79612;BME280;69094;48.154;11.536;2023-05-10T06:02:50;95032.38;;;12.09;83.51
79612;BME280;69094;48.154;11.536;2023-05-10T06:05:16;95033.16;;;12.10;83.85
79612;BME280;69094;48.154;11.536;2023-05-10T06:07:41;95042.19;;;12.26;83.76
79612;BME280;69094;48.154;11.536;2023-05-10T06:10:08;95043.91;;;12.31;84.06
79612;BME280;69094;48.154;11.536;2023-05-10T06:12:33;95046.25;;;12.32;83.80
79612;BME280;69094;48.154;11.536;2023-05-10T06:14:58;95046.38;;;12.36;82.35
79612;BME280;69094;48.154;11.536;2023-05-10T06:17:24;95053.19;;;12.29;83.87
79612;BME280;69094;48.154;11.536;2023-05-10T06:19:50;95066.69;;;12.38;83.88
79612;BME280;69094;48.154;11.536;2023-05-10T06:22:15;95065.47;;;12.36;83.53
79612;BME280;69094;48.154;11.536;2023-05-10T06:24:41;95062.94;;;12.43;83.99
79612;BME280;69094;48.154;11.536;2023-05-10T06:27:06;95071.31;;;12.50;82.96
79612;BME280;69094;48.154;11.536;2023-05-10T06:29:35;95072.00;;;12.47;83.34
79612;BME280;69094;48.154;11.536;2023-05-10T06:32:03;95073.34;;;12.53;82.88
79612;BME280;69094;48.154;11.536;2023-05-10T06:34:29;95075.63;;;12.51;82.90
79612;BME280;69094;48.154;11.536;2023-05-10T06:36:57;95074.31;;;12.45;82.04
79612;BME280;69094;48.154;11.536;2023-05-10T06:39:23;95085.00;;;12.38;82.27
79612;BME280;69094;48.154;11.536;2023-05-10T06:44:22;95076.38;;;12.36;82.86
79612;BME280;69094;48.154;11.536;2023-05-10T06:46:47;95076.31;;;12.48;81.81
79612;BME280;69094;48.154;11.536;2023-05-10T06:49:13;95082.69;;;12.52;81.99
79612;BME280;69094;48.154;11.536;2023-05-10T06:51:38;95083.66;;;12.60;82.04
79612;BME280;69094;48.154;11.536;2023-05-10T06:54:27;95087.63;;;12.78;81.73
79612;BME280;69094;48.154;11.536;2023-05-10T06:56:52;95081.59;;;12.85;81.63
79612;BME280;69094;48.154;11.536;2023-05-10T06:59:18;95083.41;;;12.97;81.80
79612;BME280;69094;48.154;11.536;2023-05-10T07:02:23;95082.56;;;12.92;80.52
79612;BME280;69094;48.154;11.536;2023-05-10T07:05:59;95081.69;;;13.04;80.10
79612;BME280;69094;48.154;11.536;2023-05-10T07:08:24;95089.06;;;13.04;79.29
79612;BME280;69094;48.154;11.536;2023-05-10T07:10:50;95089.75;;;13.17;78.97
79612;BME280;69094;48.154;11.536;2023-05-10T07:13:37;95097.72;;;13.38;78.15
79612;BME280;69094;48.154;11.536;2023-05-10T07:16:04;95092.06;;;13.62;76.41
79612;BME280;69094;48.154;11.536;2023-05-10T07:18:31;95099.97;;;14.03;74.80
79612;BME280;69094;48.154;11.536;2023-05-10T07:20:56;95099.78;;;14.50;72.57
79612;BME280;69094;48.154;11.536;2023-05-10T07:23:22;95099.13;;;14.76;71.98
79612;BME280;69094;48.154;11.536;2023-05-10T07:25:51;95098.41;;;14.79;70.83
79612;BME280;69094;48.154;11.536;2023-05-10T07:28:18;95091.53;;;14.89;69.30
79612;BME280;69094;48.154;11.536;2023-05-10T07:30:52;95108.41;;;14.52;70.37
79612;BME280;69094;48.154;11.536;2023-05-10T07:33:19;95098.38;;;14.56;72.19
79612;BME280;69094;48.154;11.536;2023-05-10T07:35:54;95098.97;;;14.30;72.28
79612;BME280;69094;48.154;11.536;2023-05-10T07:38:29;95107.97;;;14.31;73.10
79612;BME280;69094;48.154;11.536;2023-05-10T07:41:02;95099.28;;;14.64;71.31
79612;BME280;69094;48.154;11.536;2023-05-10T07:43:29;95100.44;;;15.05;67.51
79612;BME280;69094;48.154;11.536;2023-05-10T07:45:54;95103.56;;;15.77;65.60
79612;BME280;69094;48.154;11.536;2023-05-10T07:48:20;95099.13;;;16.55;63.38
79612;BME280;69094;48.154;11.536;2023-05-10T07:50:45;95105.41;;;17.31;60.50
79612;BME280;69094;48.154;11.536;2023-05-10T07:53:14;95104.53;;;17.71;58.82
79612;BME280;69094;48.154;11.536;2023-05-10T07:55:40;95110.47;;;17.25;60.46
79612;BME280;69094;48.154;11.536;2023-05-10T07:58:05;95110.75;;;17.57;60.26
79612;BME280;69094;48.154;11.536;2023-05-10T08:00:34;95105.00;;;16.88;60.54
79612;BME280;69094;48.154;11.536;2023-05-10T08:02:59;95099.53;;;16.91;61.96
79612;BME280;69094;48.154;11.536;2023-05-10T08:05:25;95100.38;;;16.99;60.96
79612;BME280;69094;48.154;11.536;2023-05-10T08:07:50;95103.78;;;16.51;60.63
79612;BME280;69094;48.154;11.536;2023-05-10T08:10:16;95107.16;;;16.38;61.79
79612;BME280;69094;48.154;11.536;2023-05-10T08:12:42;95112.75;;;16.48;60.90
79612;BME280;69094;48.154;11.536;2023-05-10T08:15:08;95114.84;;;16.25;60.11
79612;BME280;69094;48.154;11.536;2023-05-10T08:17:33;95111.66;;;16.87;58.31
79612;BME280;69094;48.154;11.536;2023-05-10T08:19:59;95112.19;;;16.66;57.71
79612;BME280;69094;48.154;11.536;2023-05-10T08:22:24;95118.41;;;16.93;58.96
79612;BME280;69094;48.154;11.536;2023-05-10T08:24:52;95111.81;;;17.01;58.90
79612;BME280;69094;48.154;11.536;2023-05-10T08:27:23;95120.25;;;16.51;60.58
79612;BME280;69094;48.154;11.536;2023-05-10T08:29:49;95116.75;;;15.94;62.47
79612;BME280;69094;48.154;11.536;2023-05-10T08:32:14;95119.59;;;15.75;62.04
79612;BME280;69094;48.154;11.536;2023-05-10T08:34:40;95122.84;;;15.34;63.96
79612;BME280;69094;48.154;11.536;2023-05-10T08:37:05;95116.16;;;15.08;64.65
79612;BME280;69094;48.154;11.536;2023-05-10T08:39:34;95122.69;;;14.81;65.05
79612;BME280;69094;48.154;11.536;2023-05-10T08:42:02;95120.13;;;14.69;66.16
79612;BME280;69094;48.154;11.536;2023-05-10T08:44:30;95119.88;;;14.77;67.04
79612;BME280;69094;48.154;11.536;2023-05-10T08:46:59;95124.59;;;15.00;66.01
79612;BME280;69094;48.154;11.536;2023-05-10T08:49:25;95126.94;;;15.21;65.79
79612;BME280;69094;48.154;11.536;2023-05-10T08:51:54;95120.94;;;15.15;66.17
79612;BME280;69094;48.154;11.536;2023-05-10T08:54:21;95124.59;;;15.00;67.13
79612;BME280;69094;48.154;11.536;2023-05-10T08:56:46;95121.31;;;14.91;66.64
79612;BME280;69094;48.154;11.536;2023-05-10T08:59:12;95121.97;;;14.84;67.55
79612;BME280;69094;48.154;11.536;2023-05-10T09:01:40;95126.13;;;14.97;67.58
79612;BME280;69094;48.154;11.536;2023-05-10T09:04:05;95123.16;;;15.06;66.62
79612;BME280;69094;48.154;11.536;2023-05-10T09:06:31;95124.31;;;15.28;66.89
79612;BME280;69094;48.154;11.536;2023-05-10T09:08:57;95124.66;;;16.29;62.96
79612;BME280;69094;48.154;11.536;2023-05-10T09:11:23;95115.28;;;18.53;55.68
79612;BME280;69094;48.154;11.536;2023-05-10T09:13:50;95118.72;;;19.55;51.59
79612;BME280;69094;48.154;11.536;2023-05-10T09:16:20;95111.91;;;18.88;51.67
79612;BME280;69094;48.154;11.536;2023-05-10T09:18:46;95117.09;;;18.20;54.54
79612;BME280;69094;48.154;11.536;2023-05-10T09:21:11;95120.16;;;17.56;56.38
79612;BME280;69094;48.154;11.536;2023-05-10T09:23:37;95118.91;;;17.06;55.62
79612;BME280;69094;48.154;11.536;2023-05-10T09:26:05;95120.34;;;16.58;58.21
79612;BME280;69094;48.154;11.536;2023-05-10T09:28:54;95122.88;;;16.10;58.87
79612;BME280;69094;48.154;11.536;2023-05-10T09:31:18;95120.63;;;16.20;58.86
79612;BME280;69094;48.154;11.536;2023-05-10T09:33:46;95124.75;;;16.06;58.21
79612;BME280;69094;48.154;11.536;2023-05-10T09:36:12;95121.97;;;16.63;56.69
79612;BME280;69094;48.154;11.536;2023-05-10T09:38:48;95116.44;;;16.60;56.53
79612;BME280;69094;48.154;11.536;2023-05-10T09:43:43;95118.16;;;16.41;57.88
79612;BME280;69094;48.154;11.536;2023-05-10T09:46:09;95121.28;;;16.73;57.82
79612;BME280;69094;48.154;11.536;2023-05-10T09:48:45;95115.38;;;17.05;55.59
79612;BME280;69094;48.154;11.536;2023-05-10T09:51:18;95116.84;;;18.50;52.30
79612;BME280;69094;48.154;11.536;2023-05-10T09:53:44;95116.16;;;18.71;51.03
79612;BME280;69094;48.154;11.536;2023-05-10T09:56:09;95113.56;;;18.20;51.99
79612;BME280;69094;48.154;11.536;2023-05-10T09:58:36;95108.75;;;17.54;52.28
79612;BME280;69094;48.154;11.536;2023-05-10T10:01:03;95104.41;;;17.05;54.54
79612;BME280;69094;48.154;11.536;2023-05-10T10:03:29;95108.03;;;17.16;55.10
79612;BME280;69094;48.154;11.536;2023-05-10T10:05:55;95110.16;;;17.34;54.85
79612;BME280;69094;48.154;11.536;2023-05-10T10:08:21;95104.41;;;17.53;54.50
79612;BME280;69094;48.154;11.536;2023-05-10T10:10:47;95109.97;;;17.57;53.90
79612;BME280;69094;48.154;11.536;2023-05-10T10:13:13;95107.84;;;17.84;53.28
79612;BME280;69094;48.154;11.536;2023-05-10T10:15:39;95108.38;;;17.56;53.78
79612;BME280;69094;48.154;11.536;2023-05-10T10:18:05;95108.22;;;17.34;54.85
79612;BME280;69094;48.154;11.536;2023-05-10T10:20:31;95107.56;;;17.07;56.48
79612;BME280;69094;48.154;11.536;2023-05-10T10:22:56;95103.56;;;17.01;56.78
79612;BME280;69094;48.154;11.536;2023-05-10T10:25:22;95107.63;;;17.14;56.56
79612;BME280;69094;48.154;11.536;2023-05-10T10:35:49;95099.38;;;19.45;46.87
79612;BME280;69094;48.154;11.536;2023-05-10T10:38:15;95106.47;;;19.31;46.33
79612;BME280;69094;48.154;11.536;2023-05-10T10:40:41;95109.91;;;18.85;48.47
79612;BME280;69094;48.154;11.536;2023-05-10T10:43:27;95107.44;;;18.59;49.84
79612;BME280;69094;48.154;11.536;2023-05-10T10:46:14;95101.66;;;18.08;50.08
79612;BME280;69094;48.154;11.536;2023-05-10T10:48:41;95097.88;;;17.72;52.38
79612;BME280;69094;48.154;11.536;2023-05-10T10:51:12;95096.34;;;17.27;53.28
79612;BME280;69094;48.154;11.536;2023-05-10T10:53:40;95091.44;;;17.06;54.35
79612;BME280;69094;48.154;11.536;2023-05-10T10:56:08;95094.53;;;17.00;55.09
79612;BME280;69094;48.154;11.536;2023-05-10T10:58:35;95111.97;;;16.82;57.71
79612;BME280;69094;48.154;11.536;2023-05-10T11:01:18;95116.38;;;16.56;60.13
79612;BME280;69094;48.154;11.536;2023-05-10T11:06:35;95097.94;;;15.92;60.92
79612;BME280;69094;48.154;11.536;2023-05-10T11:09:08;95105.34;;;15.92;63.38
79612;BME280;69094;48.154;11.536;2023-05-10T11:11:35;95096.91;;;16.04;62.71
79612;BME280;69094;48.154;11.536;2023-05-10T11:14:07;95096.66;;;16.17;62.83
79612;BME280;69094;48.154;11.536;2023-05-10T11:16:42;95099.69;;;16.08;62.71
79612;BME280;69094;48.154;11.536;2023-05-10T11:19:10;95101.59;;;16.04;60.19
79612;BME280;69094;48.154;11.536;2023-05-10T11:21:52;95107.19;;;15.84;59.96
79612;BME280;69094;48.154;11.536;2023-05-10T11:24:36;95113.31;;;15.74;61.17
79612;BME280;69094;48.154;11.536;2023-05-10T11:27:02;95119.19;;;15.49;60.39
79612;BME280;69094;48.154;11.536;2023-05-10T11:29:27;95117.69;;;15.06;61.64
79612;BME280;69094;48.154;11.536;2023-05-10T11:31:57;95124.59;;;15.00;61.70
79612;BME280;69094;48.154;11.536;2023-05-10T11:34:30;95128.25;;;14.84;62.21
79612;BME280;69094;48.154;11.536;2023-05-10T11:36:59;95128.69;;;14.67;63.60
79612;BME280;69094;48.154;11.536;2023-05-10T11:39:31;95135.19;;;14.59;64.65
79612;BME280;69094;48.154;11.536;2023-05-10T11:41:59;95142.94;;;14.37;66.63
79612;BME280;69094;48.154;11.536;2023-05-10T11:44:31;95139.19;;;14.26;67.55
79612;BME280;69094;48.154;11.536;2023-05-10T11:47:01;95136.25;;;13.99;68.72
79612;BME280;69094;48.154;11.536;2023-05-10T11:49:26;95142.19;;;13.86;70.40
79612;BME280;69094;48.154;11.536;2023-05-10T11:51:52;95140.91;;;13.79;70.17
79612;BME280;69094;48.154;11.536;2023-05-10T11:54:17;95148.28;;;13.95;69.55
79612;BME280;69094;48.154;11.536;2023-05-10T11:56:43;95145.88;;;13.93;68.46
79612;BME280;69094;48.154;11.536;2023-05-10T11:59:08;95151.69;;;13.56;70.60
79612;BME280;69094;48.154;11.536;2023-05-10T12:01:34;95152.38;;;13.38;71.44
79612;BME280;69094;48.154;11.536;2023-05-10T12:04:00;95154.53;;;13.16;72.17
79612;BME280;69094;48.154;11.536;2023-05-10T12:06:28;95149.97;;;13.04;73.87
79612;BME280;69094;48.154;11.536;2023-05-10T12:08:54;95165.47;;;13.00;75.31
79612;BME280;69094;48.154;11.536;2023-05-10T12:11:20;95157.94;;;12.81;76.12
79612;BME280;69094;48.154;11.536;2023-05-10T12:13:49;95165.72;;;12.67;76.96
79612;BME280;69094;48.154;11.536;2023-05-10T12:16:16;95166.41;;;12.64;76.38
79612;BME280;69094;48.154;11.536;2023-05-10T12:18:43;95163.28;;;12.49;77.06
79612;BME280;69094;48.154;11.536;2023-05-10T12:21:12;95172.50;;;12.57;76.49
79612;BME280;69094;48.154;11.536;2023-05-10T12:23:38;95170.44;;;12.54;76.65
79612;BME280;69094;48.154;11.536;2023-05-10T12:26:04;95177.72;;;12.62;75.75
79612;BME280;69094;48.154;11.536;2023-05-10T12:28:31;95180.53;;;12.66;76.19
79612;BME280;69094;48.154;11.536;2023-05-10T12:31:00;95183.16;;;12.62;76.32
79612;BME280;69094;48.154;11.536;2023-05-10T12:33:26;95190.44;;;12.58;76.89
79612;BME280;69094;48.154;11.536;2023-05-10T12:35:53;95202.59;;;12.61;76.49
79612;BME280;69094;48.154;11.536;2023-05-10T12:38:29;95205.91;;;12.54;77.07
79612;BME280;69094;48.154;11.536;2023-05-10T12:41:00;95206.63;;;12.51;76.90
79612;BME280;69094;48.154;11.536;2023-05-10T12:43:26;95200.47;;;12.54;77.77
79612;BME280;69094;48.154;11.536;2023-05-10T12:45:52;95203.94;;;12.67;77.46
79612;BME280;69094;48.154;11.536;2023-05-10T12:48:17;95203.16;;;12.66;77.62
79612;BME280;69094;48.154;11.536;2023-05-10T12:50:43;95201.41;;;12.74;76.76
79612;BME280;69094;48.154;11.536;2023-05-10T12:53:08;95201.63;;;12.81;77.60
79612;BME280;69094;48.154;11.536;2023-05-10T12:55:34;95201.03;;;12.88;77.40
79612;BME280;69094;48.154;11.536;2023-05-10T12:57:59;95202.34;;;12.94;77.54
79612;BME280;69094;48.154;11.536;2023-05-10T13:00:25;95208.38;;;13.00;77.39
79612;BME280;69094;48.154;11.536;2023-05-10T13:02:50;95196.56;;;13.11;77.54
79612;BME280;69094;48.154;11.536;2023-05-10T13:05:15;95208.13;;;13.21;75.75
79612;BME280;69094;48.154;11.536;2023-05-10T13:07:41;95202.09;;;13.27;75.87
79612;BME280;69094;48.154;11.536;2023-05-10T13:10:07;95211.03;;;13.40;75.77
79612;BME280;69094;48.154;11.536;2023-05-10T13:12:32;95216.56;;;13.44;75.93
79612;BME280;69094;48.154;11.536;2023-05-10T13:14:57;95214.34;;;13.33;76.64
79612;BME280;69094;48.154;11.536;2023-05-10T13:17:25;95201.78;;;13.17;74.57
79612;BME280;69094;48.154;11.536;2023-05-10T13:19:50;95203.03;;;13.19;74.13
79612;BME280;69094;48.154;11.536;2023-05-10T13:22:16;95213.41;;;13.13;75.08
79612;BME280;69094;48.154;11.536;2023-05-10T13:24:41;95203.38;;;13.18;74.54
79612;BME280;69094;48.154;11.536;2023-05-10T13:27:06;95217.50;;;13.20;76.21